Stillman Valley, Illinois
Current Conditions -  °F | °C
As of 5:54 PM on Wednesday 28 Jan 2015 (Local Time) from KRFD Reporting Station
Broken Clouds Broken Clouds  
Wind Chill: 20°   Ceiling: 23000
Heat Index: 32°   Visibility: 10mi
Dew Point: 24°   Wind: 20mph
Humidity: 73%   Direction: 160°SSE
Pressure: 29.94"   Gusts: 29mph
Location:  42.11°N, 89.18°W
Report Text: KRFD 282354Z 16017G25KT 10SM BKN230 00/M04 A2994 RMK AO2 PK WND 14029/2310 SLP149 T00001044 10006 21006 56033
Loading
Personal Weather Stations






























Interactive Weather Map New forecast layout! Learn more

10-Day Weather Forecast

Advertisements
Track Severe Weather on mobile